createdAt,value
2017-12-15T00:02:20.275Z,40.67
2017-12-15T00:04:49.748Z,40.13
2017-12-15T00:07:19.275Z,41.27
2017-12-15T00:09:49.031Z,39.63
2017-12-15T00:12:18.959Z,37.40
2017-12-15T00:14:48.540Z,32.33
2017-12-15T00:17:18.142Z,37.20
2017-12-15T00:19:47.739Z,45.37
2017-12-15T00:22:23.411Z,41.40
2017-12-15T00:24:53.302Z,36.70
2017-12-15T00:27:23.371Z,42.67
2017-12-15T00:29:52.903Z,38.63
2017-12-15T00:32:22.442Z,41.73
2017-12-15T00:34:52.067Z,48.50
2017-12-15T00:37:21.789Z,38.13
2017-12-15T00:39:51.323Z,35.77
2017-12-15T00:42:21.027Z,42.93
2017-12-15T00:44:50.914Z,52.90
2017-12-15T00:47:20.382Z,46.97
2017-12-15T00:49:50.102Z,44.80
2017-12-15T00:52:20.590Z,51.60
2017-12-15T00:54:50.219Z,51.50
2017-12-15T00:57:21.315Z,44.00
2017-12-15T00:59:50.928Z,45.63
2017-12-15T01:02:20.820Z,46.20
2017-12-15T01:04:50.314Z,46.37
2017-12-15T01:07:19.819Z,45.73
2017-12-15T01:09:49.520Z,46.63
2017-12-15T01:12:18.959Z,45.27
2017-12-15T01:14:48.794Z,47.83
2017-12-15T01:17:18.707Z,42.37
2017-12-15T01:19:48.475Z,44.27
2017-12-15T01:22:17.940Z,42.40
2017-12-15T01:24:47.448Z,44.87
2017-12-15T01:27:17.278Z,49.73
2017-12-15T01:29:47.527Z,45.43
2017-12-15T01:32:16.992Z,56.07
2017-12-15T01:34:46.474Z,48.40
2017-12-15T01:37:15.948Z,58.67
2017-12-15T01:39:45.604Z,46.50
2017-12-15T01:42:15.697Z,50.93
2017-12-15T01:44:46.078Z,51.47
2017-12-15T01:47:15.575Z,59.30
2017-12-15T01:49:45.231Z,48.20
2017-12-15T01:52:15.015Z,51.33
2017-12-15T01:54:45.277Z,59.60
2017-12-15T01:57:14.823Z,64.87
2017-12-15T01:59:45.371Z,60.97
2017-12-15T02:02:14.819Z,45.63
2017-12-15T02:04:44.267Z,46.03
2017-12-15T02:07:13.948Z,62.87
2017-12-15T02:09:43.394Z,51.03
2017-12-15T02:12:13.072Z,43.37
2017-12-15T02:14:43.335Z,51.50
2017-12-15T02:17:12.799Z,42.63
2017-12-15T02:19:42.432Z,56.97
2017-12-15T02:22:11.869Z,54.27
2017-12-15T02:24:41.594Z,54.73
2017-12-15T02:27:11.351Z,48.63
2017-12-15T02:29:40.848Z,47.57
2017-12-15T02:32:11.143Z,55.73
2017-12-15T02:34:40.665Z,45.77
2017-12-15T02:37:11.143Z,49.37
2017-12-15T02:39:40.621Z,51.47
2017-12-15T02:42:10.452Z,54.67
2017-12-15T02:44:39.894Z,51.23
2017-12-15T02:47:10.103Z,57.50
2017-12-15T02:49:39.683Z,51.70
2017-12-15T02:52:09.147Z,49.73
2017-12-15T02:54:39.395Z,52.40
2017-12-15T02:57:08.838Z,57.70
2017-12-15T02:59:38.364Z,58.63
2017-12-15T03:02:07.807Z,52.30
2017-12-15T03:04:37.379Z,64.03
2017-12-15T03:07:06.820Z,69.70
2017-12-15T03:09:36.411Z,70.80
2017-12-15T03:12:06.158Z,59.40
2017-12-15T03:14:35.591Z,66.03
2017-12-15T03:17:04.683Z,53.40
2017-12-15T03:19:34.439Z,71.17
2017-12-15T03:22:03.892Z,65.87
2017-12-15T03:24:34.356Z,55.87
2017-12-15T03:27:03.791Z,57.73
2017-12-15T03:29:33.227Z,63.17
2017-12-15T03:32:02.708Z,64.77
2017-12-15T03:34:32.171Z,63.20
2017-12-15T03:37:01.622Z,76.20
2017-12-15T03:39:31.226Z,60.70
2017-12-15T03:42:00.742Z,61.17
2017-12-15T03:44:30.199Z,56.13
2017-12-15T03:46:59.684Z,60.13
2017-12-15T03:49:29.903Z,68.10
2017-12-15T03:51:59.334Z,60.97
2017-12-15T03:54:28.968Z,58.47
2017-12-15T03:56:58.519Z,57.40
2017-12-15T03:59:27.997Z,62.90
2017-12-15T04:01:57.576Z,61.27
2017-12-15T04:04:27.008Z,72.47
2017-12-15T04:06:56.517Z,65.40
2017-12-15T04:09:26.014Z,63.10
2017-12-15T04:11:55.631Z,63.00
2017-12-15T04:14:25.126Z,72.87
2017-12-15T04:16:54.882Z,69.43
2017-12-15T04:19:24.520Z,82.77
2017-12-15T04:21:54.074Z,80.53
2017-12-15T04:24:24.482Z,65.60
2017-12-15T04:26:54.717Z,78.60
2017-12-15T04:29:24.482Z,71.20
2017-12-15T04:31:54.062Z,62.90
2017-12-15T04:34:23.553Z,65.10
2017-12-15T04:36:53.914Z,63.20
2017-12-15T04:39:23.739Z,73.10
2017-12-15T04:41:53.360Z,61.37
2017-12-15T04:44:22.849Z,69.33
2017-12-15T04:46:52.371Z,64.37
2017-12-15T04:49:22.057Z,68.73
2017-12-15T04:51:53.090Z,56.57
2017-12-15T04:54:22.579Z,70.30
2017-12-15T04:56:52.140Z,55.77
2017-12-15T04:59:23.139Z,56.23
2017-12-15T05:01:52.621Z,54.10
2017-12-15T05:04:22.093Z,54.30
2017-12-15T05:06:51.611Z,53.27
2017-12-15T05:09:21.109Z,58.37
2017-12-15T05:11:50.711Z,54.77
2017-12-15T05:14:21.148Z,58.70
2017-12-15T05:16:50.999Z,52.37
2017-12-15T05:19:20.470Z,60.60
2017-12-15T05:21:50.716Z,54.97
2017-12-15T05:24:20.204Z,52.67
2017-12-15T05:26:49.671Z,54.17
2017-12-15T05:29:20.670Z,65.23
2017-12-15T05:31:50.122Z,63.70
2017-12-15T05:34:19.596Z,60.67
2017-12-15T05:36:49.594Z,56.93
2017-12-15T05:39:19.075Z,59.97
2017-12-15T05:41:49.347Z,60.63
2017-12-15T05:44:19.056Z,59.90
2017-12-15T05:46:48.678Z,59.10
2017-12-15T05:49:18.149Z,59.63
2017-12-15T05:51:47.606Z,56.57
2017-12-15T05:54:17.950Z,57.70
2017-12-15T05:56:47.662Z,56.13
2017-12-15T05:59:17.175Z,51.70
2017-12-15T06:01:46.684Z,60.80
2017-12-15T06:04:16.329Z,56.07
2017-12-15T06:06:45.865Z,68.00
2017-12-15T06:09:16.484Z,50.03
2017-12-15T06:11:46.346Z,57.73
2017-12-15T06:14:15.906Z,63.50
2017-12-15T06:16:45.372Z,59.27
2017-12-15T06:19:15.187Z,63.27
2017-12-15T06:21:44.711Z,62.47
2017-12-15T06:24:14.296Z,59.70
2017-12-15T06:26:43.836Z,60.77
2017-12-15T06:29:13.331Z,59.93
2017-12-15T06:31:43.685Z,56.17
2017-12-15T06:34:13.381Z,54.13
2017-12-15T06:36:42.854Z,65.00
2017-12-15T06:39:12.354Z,52.70
2017-12-15T06:41:41.804Z,60.20
2017-12-15T06:44:12.214Z,54.97
2017-12-15T06:46:41.815Z,54.03
2017-12-15T06:49:11.325Z,56.13
2017-12-15T06:51:40.838Z,55.03
2017-12-15T06:54:10.820Z,55.27
2017-12-15T06:56:40.838Z,51.00
2017-12-15T06:59:10.473Z,59.87
2017-12-15T07:01:39.944Z,57.63
2017-12-15T07:04:09.739Z,48.57
2017-12-15T07:06:39.291Z,50.30
2017-12-15T07:09:09.653Z,58.77
2017-12-15T07:11:39.138Z,53.50
2017-12-15T07:14:08.759Z,54.63
2017-12-15T07:16:38.522Z,63.70
2017-12-15T07:19:09.556Z,60.17
2017-12-15T07:21:39.217Z,51.70
2017-12-15T07:24:09.074Z,53.27
2017-12-15T07:26:38.750Z,52.70
2017-12-15T07:29:08.937Z,47.90
2017-12-15T07:31:38.390Z,55.53
2017-12-15T07:34:08.046Z,53.00
2017-12-15T07:36:37.659Z,61.90
2017-12-15T07:39:07.159Z,55.57
2017-12-15T07:41:36.826Z,54.40
2017-12-15T07:44:06.489Z,68.03
2017-12-15T07:46:36.367Z,66.33
2017-12-15T07:49:05.824Z,57.23
2017-12-15T07:51:35.614Z,58.33
2017-12-15T07:54:05.342Z,60.40
2017-12-15T07:56:34.872Z,68.27
2017-12-15T07:59:04.535Z,67.70
2017-12-15T08:01:34.065Z,70.83
2017-12-15T08:04:03.531Z,70.20
2017-12-15T08:06:33.810Z,54.17
2017-12-15T08:09:03.632Z,58.47
2017-12-15T08:11:33.205Z,61.50
2017-12-15T08:14:03.068Z,54.03
2017-12-15T08:16:32.887Z,66.87
2017-12-15T08:19:02.391Z,60.60
2017-12-15T08:21:31.880Z,60.23
2017-12-15T08:24:01.424Z,58.63
2017-12-15T08:26:31.975Z,62.60
2017-12-15T08:29:01.482Z,60.00
2017-12-15T08:31:30.975Z,64.40
2017-12-15T08:34:00.471Z,55.57
2017-12-15T08:36:29.945Z,63.47
2017-12-15T08:38:59.797Z,55.30
2017-12-15T08:41:29.539Z,58.73
2017-12-15T08:43:59.052Z,55.80
2017-12-15T08:46:28.806Z,54.90
2017-12-15T08:48:59.062Z,59.87
2017-12-15T08:51:28.729Z,60.73
2017-12-15T08:53:58.266Z,63.17
2017-12-15T08:56:27.941Z,63.73
2017-12-15T08:58:57.768Z,69.43
2017-12-15T09:01:28.387Z,60.47
2017-12-15T09:04:03.278Z,69.70
2017-12-15T09:06:33.170Z,65.67
2017-12-15T09:09:02.660Z,60.07
2017-12-15T09:11:32.295Z,57.40
2017-12-15T09:14:01.870Z,66.57
2017-12-15T09:16:32.138Z,60.93
2017-12-15T09:19:01.637Z,58.40
2017-12-15T09:21:31.599Z,74.57
2017-12-15T09:24:01.312Z,72.43
2017-12-15T09:26:31.008Z,86.57
2017-12-15T09:29:00.657Z,85.43
2017-12-15T09:31:30.138Z,71.53
2017-12-15T09:34:00.375Z,60.10
2017-12-15T09:36:30.258Z,68.37
2017-12-15T09:39:00.118Z,56.13
2017-12-15T09:41:29.725Z,60.90
2017-12-15T09:43:59.188Z,63.90
2017-12-15T09:46:29.034Z,77.73
2017-12-15T09:48:58.482Z,58.33
2017-12-15T09:51:27.947Z,64.53
2017-12-15T09:53:57.549Z,59.63
2017-12-15T09:56:27.161Z,56.73
2017-12-15T09:58:56.860Z,56.63
2017-12-15T10:01:26.341Z,54.00
2017-12-15T10:03:55.849Z,57.53
2017-12-15T10:06:25.323Z,57.90
2017-12-15T10:08:54.823Z,61.33
2017-12-15T10:11:24.364Z,50.70
2017-12-15T10:13:54.012Z,61.50
2017-12-15T10:16:23.463Z,59.70
2017-12-15T10:18:53.737Z,48.70
2017-12-15T10:21:23.791Z,63.50
2017-12-15T10:23:53.449Z,55.57
2017-12-15T10:26:22.986Z,49.80
2017-12-15T10:28:52.908Z,52.97
2017-12-15T10:31:22.914Z,59.93
2017-12-15T10:33:52.652Z,88.23
2017-12-15T10:36:23.537Z,60.03
2017-12-15T10:38:53.303Z,62.77
2017-12-15T10:41:22.784Z,61.33
2017-12-15T10:43:52.241Z,61.67
2017-12-15T10:46:21.683Z,54.70
2017-12-15T10:48:51.341Z,54.53
2017-12-15T10:51:22.032Z,52.70
2017-12-15T10:53:51.544Z,67.53
2017-12-15T10:56:21.181Z,56.93
2017-12-15T10:58:50.636Z,60.20
2017-12-15T11:01:21.012Z,52.67
2017-12-15T11:03:50.524Z,53.83
2017-12-15T11:06:20.840Z,53.77
2017-12-15T11:08:50.314Z,60.00
2017-12-15T11:11:19.806Z,61.90
2017-12-15T11:13:49.487Z,51.10
2017-12-15T11:16:18.947Z,74.60
2017-12-15T11:18:48.711Z,54.23
2017-12-15T11:21:18.336Z,71.87
2017-12-15T11:23:48.296Z,59.97
2017-12-15T11:26:18.863Z,60.90
2017-12-15T11:28:48.528Z,68.77
2017-12-15T11:31:18.912Z,50.00
2017-12-15T11:33:48.604Z,71.00
2017-12-15T11:36:18.100Z,51.13
2017-12-15T11:38:47.857Z,56.97
2017-12-15T11:41:17.361Z,67.50
2017-12-15T11:43:47.089Z,60.63
2017-12-15T11:46:16.619Z,68.83
2017-12-15T11:48:46.907Z,64.33
2017-12-15T11:51:16.574Z,56.07
2017-12-15T11:53:46.242Z,62.00
2017-12-15T11:56:15.777Z,55.77
2017-12-15T11:58:45.460Z,77.63
2017-12-15T12:01:15.686Z,65.83
2017-12-15T12:03:45.446Z,60.27
2017-12-15T12:06:14.981Z,62.17
2017-12-15T12:08:44.495Z,68.37
2017-12-15T12:11:14.781Z,64.90
2017-12-15T12:13:44.311Z,66.47
2017-12-15T12:16:13.793Z,68.53
2017-12-15T12:18:43.606Z,72.57
2017-12-15T12:21:13.518Z,65.73
2017-12-15T12:23:43.342Z,66.40
2017-12-15T12:26:12.943Z,62.87
2017-12-15T12:28:42.511Z,59.17
2017-12-15T12:31:12.442Z,58.83
2017-12-15T12:33:41.995Z,69.87
2017-12-15T12:36:12.134Z,59.87
2017-12-15T12:38:41.815Z,59.00
2017-12-15T12:41:11.292Z,72.57
2017-12-15T12:43:40.837Z,55.23
2017-12-15T12:46:11.490Z,55.60
2017-12-15T12:48:41.001Z,60.57
2017-12-15T12:51:11.396Z,66.93
2017-12-15T12:53:41.019Z,62.30
2017-12-15T12:56:10.756Z,57.20
2017-12-15T12:58:40.526Z,69.77
2017-12-15T13:01:11.498Z,69.07
2017-12-15T13:03:41.163Z,69.00
2017-12-15T13:06:10.869Z,58.67
2017-12-15T13:08:40.425Z,53.63
2017-12-15T13:11:10.200Z,69.80
2017-12-15T13:13:39.715Z,53.40
2017-12-15T13:16:09.615Z,53.70
2017-12-15T13:18:39.278Z,48.10
2017-12-15T13:21:08.874Z,52.53
2017-12-15T13:23:38.901Z,50.90
2017-12-15T13:26:08.677Z,38.00
2017-12-15T13:28:38.377Z,51.30
2017-12-15T13:31:08.362Z,48.87
2017-12-15T13:33:37.965Z,44.20
2017-12-15T13:36:07.514Z,46.77
2017-12-15T13:38:37.103Z,48.97
2017-12-15T13:41:07.454Z,51.80
2017-12-15T13:43:37.309Z,46.23
2017-12-15T13:46:06.611Z,53.37
2017-12-15T13:48:36.532Z,43.47
2017-12-15T13:51:06.556Z,42.43
2017-12-15T13:53:36.257Z,52.13
2017-12-15T13:56:06.057Z,42.80
2017-12-15T13:58:35.752Z,48.43
2017-12-15T14:01:05.921Z,46.97
2017-12-15T14:03:35.536Z,55.47
2017-12-15T14:06:05.072Z,52.10
2017-12-15T14:08:34.685Z,77.80
2017-12-15T14:11:04.371Z,50.63
2017-12-15T14:13:33.975Z,55.40
2017-12-15T14:16:03.943Z,55.20
2017-12-15T14:18:33.763Z,60.43
2017-12-15T14:21:03.319Z,56.53
2017-12-15T14:23:33.225Z,51.07
2017-12-15T14:26:04.398Z,53.87
2017-12-15T14:28:34.877Z,49.30
2017-12-15T14:31:04.558Z,50.00
2017-12-15T14:33:41.032Z,59.23
2017-12-15T14:36:11.181Z,56.30
2017-12-15T14:38:40.837Z,43.57
2017-12-15T14:41:12.488Z,54.67
2017-12-15T14:43:42.505Z,49.57
2017-12-15T14:46:12.157Z,44.03
2017-12-15T14:48:43.931Z,57.63
2017-12-15T14:51:12.128Z,51.97
2017-12-15T14:53:41.897Z,44.20
2017-12-15T14:56:11.791Z,54.93
2017-12-15T14:58:41.703Z,55.90
2017-12-15T15:01:11.459Z,54.77
2017-12-15T15:03:41.260Z,54.77
2017-12-15T15:06:11.018Z,59.63
2017-12-15T15:08:41.837Z,43.53
2017-12-15T15:13:48.249Z,65.20
2017-12-15T15:16:18.387Z,48.20
2017-12-15T15:18:48.289Z,51.47
2017-12-15T15:21:18.713Z,56.53
2017-12-15T15:23:48.929Z,42.23
2017-12-15T15:26:18.405Z,50.33
2017-12-15T15:28:48.074Z,44.37
2017-12-15T15:31:17.902Z,48.27
2017-12-15T15:33:48.257Z,47.33
2017-12-15T15:36:18.261Z,36.83
2017-12-15T15:38:48.086Z,39.80
2017-12-15T15:41:17.973Z,43.80
2017-12-15T15:43:47.946Z,41.17
2017-12-15T15:46:18.178Z,45.80
2017-12-15T15:48:48.065Z,46.90
2017-12-15T15:51:17.741Z,44.93
2017-12-15T15:53:48.107Z,36.67
2017-12-15T15:56:17.868Z,43.10
2017-12-15T15:58:47.698Z,45.53
2017-12-15T16:01:17.485Z,37.27
2017-12-15T16:03:47.572Z,51.63
2017-12-15T16:06:17.395Z,37.47
2017-12-15T16:08:47.103Z,41.37
2017-12-15T16:11:17.002Z,40.97
2017-12-15T16:13:48.333Z,38.27
2017-12-15T16:16:19.168Z,38.73
2017-12-15T16:18:48.901Z,39.07
2017-12-15T16:21:18.755Z,45.40
2017-12-15T16:23:49.542Z,44.80
2017-12-15T16:26:19.185Z,39.97
2017-12-15T16:28:49.775Z,47.53
2017-12-15T16:31:19.833Z,48.40
2017-12-15T16:33:49.495Z,53.27
2017-12-15T16:36:19.175Z,49.13
2017-12-15T16:38:48.811Z,47.90
2017-12-15T16:41:18.299Z,45.80
2017-12-15T16:43:48.135Z,49.37
2017-12-15T16:46:18.015Z,54.60
2017-12-15T16:48:47.663Z,45.67
2017-12-15T16:51:17.460Z,55.40
2017-12-15T16:53:47.082Z,55.33
2017-12-15T16:56:17.352Z,50.57
2017-12-15T16:58:47.116Z,54.37
2017-12-15T17:01:16.829Z,53.07
2017-12-15T17:03:46.463Z,51.73
2017-12-15T17:06:16.963Z,48.13
2017-12-15T17:08:46.544Z,50.10
2017-12-15T17:11:16.120Z,46.50
2017-12-15T17:13:46.555Z,50.93
2017-12-15T17:16:17.015Z,51.53
2017-12-15T17:18:46.867Z,55.33
2017-12-15T17:21:18.142Z,59.87
2017-12-15T17:23:48.026Z,59.40
2017-12-15T17:26:17.577Z,49.83
2017-12-15T17:28:47.311Z,55.83
2017-12-15T17:31:17.095Z,47.80
2017-12-15T17:33:47.249Z,45.93
2017-12-15T17:36:16.831Z,43.07
2017-12-15T17:38:46.434Z,44.70
2017-12-15T17:41:16.345Z,41.40
2017-12-15T17:43:46.162Z,44.80
2017-12-15T17:46:15.765Z,44.43
2017-12-15T17:48:45.613Z,45.97
2017-12-15T17:51:15.510Z,44.50
2017-12-15T17:53:45.186Z,45.20
2017-12-15T17:56:14.901Z,46.37
2017-12-15T17:58:44.878Z,37.70
2017-12-15T18:01:15.805Z,46.57
2017-12-15T18:03:46.963Z,59.23
2017-12-15T18:06:16.525Z,44.13
2017-12-15T18:08:46.477Z,46.00
2017-12-15T18:11:16.573Z,38.70
2017-12-15T18:13:46.312Z,46.17
2017-12-15T18:16:15.944Z,37.90
2017-12-15T18:18:46.426Z,42.20
2017-12-15T18:21:16.440Z,49.60
2017-12-15T18:23:46.262Z,46.93
2017-12-15T18:26:16.017Z,45.10
2017-12-15T18:28:45.834Z,38.27
2017-12-15T18:31:15.418Z,41.43
2017-12-15T18:33:46.123Z,46.70
2017-12-15T18:36:15.926Z,47.33
2017-12-15T18:38:45.592Z,59.70
2017-12-15T18:41:15.450Z,37.47
2017-12-15T18:43:45.638Z,40.90
2017-12-15T18:46:15.504Z,42.50
2017-12-15T18:48:45.814Z,48.00
2017-12-15T18:51:15.684Z,43.17
2017-12-15T18:53:45.525Z,53.23
2017-12-15T18:56:22.214Z,46.77
2017-12-15T18:58:52.429Z,53.03
2017-12-15T19:01:22.510Z,45.00
2017-12-15T19:03:52.248Z,47.50
2017-12-15T19:06:21.997Z,49.87
2017-12-15T19:08:51.988Z,43.27
2017-12-15T19:11:21.738Z,40.60
2017-12-15T19:13:51.815Z,47.33
2017-12-15T19:16:21.429Z,41.50
2017-12-15T19:18:51.341Z,45.33
2017-12-15T19:21:21.348Z,46.63
2017-12-15T19:23:51.182Z,45.53
2017-12-15T19:26:22.163Z,43.13
2017-12-15T19:28:52.122Z,44.60
2017-12-15T19:31:21.940Z,32.70
2017-12-15T19:33:51.559Z,43.80
2017-12-15T19:36:21.337Z,37.80
2017-12-15T19:38:51.099Z,32.80
2017-12-15T19:41:21.148Z,35.53
2017-12-15T19:43:50.901Z,42.23
2017-12-15T19:46:20.887Z,36.40
2017-12-15T19:48:50.999Z,26.77
2017-12-15T19:51:21.020Z,29.87
2017-12-15T19:53:50.850Z,34.57
2017-12-15T19:56:20.716Z,29.30
2017-12-15T19:58:50.651Z,30.20
2017-12-15T20:01:20.489Z,27.20
2017-12-15T20:03:50.587Z,26.73
2017-12-15T20:06:21.510Z,27.03
2017-12-15T20:08:51.577Z,28.53
2017-12-15T20:11:23.320Z,25.57
2017-12-15T20:13:53.926Z,25.53
2017-12-15T20:16:23.947Z,23.50
2017-12-15T20:18:53.916Z,23.73
2017-12-15T20:21:23.542Z,17.80
2017-12-15T20:23:53.511Z,22.67
2017-12-15T20:26:23.387Z,27.93
2017-12-15T20:28:53.144Z,23.20
2017-12-15T20:31:23.038Z,26.63
2017-12-15T20:33:52.843Z,15.90
2017-12-15T20:36:22.750Z,20.10
2017-12-15T20:38:52.590Z,12.40
2017-12-15T20:41:23.414Z,21.00
2017-12-15T20:43:53.352Z,13.00
2017-12-15T20:46:23.666Z,19.03
2017-12-15T20:48:53.738Z,15.10
2017-12-15T20:51:23.586Z,12.93
2017-12-15T20:53:53.549Z,17.53
2017-12-15T20:56:24.338Z,14.70
2017-12-15T20:58:54.095Z,12.17
2017-12-15T21:01:23.801Z,15.13
2017-12-15T21:03:54.598Z,8.87
2017-12-15T21:06:24.526Z,11.43
2017-12-15T21:08:55.134Z,14.10
2017-12-15T21:11:25.157Z,7.70
2017-12-15T21:13:54.835Z,12.37
2017-12-15T21:16:24.837Z,13.43
2017-12-15T21:18:54.617Z,12.70
2017-12-15T21:21:24.610Z,10.27
2017-12-15T21:23:55.944Z,9.47
2017-12-15T21:26:25.642Z,14.90
2017-12-15T21:28:55.697Z,11.27
2017-12-15T21:31:25.572Z,16.07
2017-12-15T21:33:55.282Z,11.10
2017-12-15T21:36:25.253Z,12.53
2017-12-15T21:38:55.609Z,8.60
2017-12-15T21:41:25.649Z,10.50
2017-12-15T21:43:56.748Z,12.40
2017-12-15T21:46:27.311Z,9.30
2017-12-15T21:48:57.063Z,9.97
2017-12-15T21:51:26.774Z,10.80
2017-12-15T21:53:56.738Z,12.53
2017-12-15T21:56:26.819Z,8.80
2017-12-15T21:58:56.583Z,14.83
2017-12-15T22:01:26.474Z,9.50
2017-12-15T22:03:56.969Z,13.80
2017-12-15T22:06:26.717Z,14.27
2017-12-15T22:08:56.812Z,11.40
2017-12-15T22:11:26.478Z,15.07
2017-12-15T22:13:56.395Z,9.10
2017-12-15T22:16:26.066Z,16.40
2017-12-15T22:18:55.789Z,11.80
2017-12-15T22:21:25.702Z,9.80
2017-12-15T22:23:55.374Z,17.67
2017-12-15T22:26:25.952Z,8.80
2017-12-15T22:28:55.563Z,8.47
2017-12-15T22:31:25.317Z,10.97
2017-12-15T22:33:54.880Z,7.77
2017-12-15T22:36:24.677Z,10.77
2017-12-15T22:38:54.394Z,9.40
2017-12-15T22:41:24.094Z,8.17
2017-12-15T22:43:54.022Z,11.50
2017-12-15T22:46:23.598Z,5.97
2017-12-15T22:48:53.334Z,4.40
2017-12-15T22:51:22.969Z,4.97
2017-12-15T22:53:52.673Z,4.07
2017-12-15T22:56:22.159Z,3.53
2017-12-15T22:58:51.679Z,6.03
2017-12-15T23:01:21.381Z,5.77
2017-12-15T23:03:51.251Z,8.23
2017-12-15T23:06:21.796Z,4.23
2017-12-15T23:08:51.539Z,3.73
2017-12-15T23:11:20.992Z,3.77
2017-12-15T23:13:50.475Z,6.07
2017-12-15T23:16:21.819Z,4.97
2017-12-15T23:18:51.331Z,3.07
2017-12-15T23:21:20.831Z,3.20
2017-12-15T23:23:50.459Z,3.40
2017-12-15T23:26:20.703Z,2.00
2017-12-15T23:28:50.542Z,2.90
2017-12-15T23:31:20.387Z,2.67
2017-12-15T23:33:49.901Z,2.30
2017-12-15T23:36:20.281Z,2.87
2017-12-15T23:38:49.781Z,2.53
2017-12-15T23:41:19.250Z,2.60
2017-12-15T23:43:49.647Z,2.53
2017-12-15T23:46:20.151Z,2.13
2017-12-15T23:48:49.670Z,5.10
2017-12-15T23:51:19.298Z,2.20
2017-12-15T23:53:49.642Z,2.50
2017-12-15T23:57:00.931Z,1.80
2017-12-15T23:59:30.487Z,2.77
